LSMELOWI

Guest
Details From LSME - Emmen
To LOWI - Innsbruck Kranebitten
Flight Number -
Tags decoded
Created
Modified
Stats Distance 140 nm / 258 km
Max Altitude 0 ft / 0 m
Waypoints 5
Social Downloads 0
Likes 0
Share VATSIM

Download

Looking for another format? Having issues loading an existing format? Contact us
Advertisement - Login to hide

Notes

Requested: LSME ELMUR UN851 KUDIS Z138 DEGES UN871 MADEB LOWI Unmatched points: UN851 Z138 UN871 MADEB

Route

LSME ELMUR KUDIS DEGES LOWI

ID Type Via Altitude Latitude Longitude Leg Dist Tot Dist Heading (true) Name
O LSME APT - 0 ft / 0 m 47.09237˚ 8.30512˚ - 0 nm - Emmen
ELMUR FIX - 0 ft / 0 m 47.15667˚ 8.90750˚ 24 nm 24 nm 81° / 81° -
KUDIS FIX - 0 ft / 0 m 47.44111˚ 8.96694˚ 17 nm 42 nm 8° / 8° -
DEGES FIX - 0 ft / 0 m 47.41250˚ 9.20194˚ 9 nm 51 nm 100° / 100° -
O LOWI APT - 0 ft / 0 m 47.26023˚ 11.34397˚ 87 nm 139 nm 95° / 97° Innsbruck Kranebitten

Altitude Profile

Advertisement - Login to hide

LSME

Details ICAO LSME
Name Emmen
Region Switzerland
Timezone Europe/Zurich (UTC+2.0)
Stats Elevation 1,400 ft / 427 m (AMSL)
Location 47.092369° 8.305118°
Runways 1
Magnetic Variation 2.336° E

METAR

LSME 201650Z AUTO VRB02KT 9999NDV OVC094 18/11 Q1016 RMK

Decode

TAF

Not found

Departure Runways

ID Width Length Bearing (true) Bearing (mag) Surface Threshold Offset Overrun Length
04 130 ft / 40 m 8,202 ft / 2,500 m 37.49° 35.15° Asphalt 363 ft / 111 m 810 ft / 247 m
22 130 ft / 40 m 8,202 ft / 2,500 m 217.51° 215.17° Asphalt 596 ft / 182 m 747 ft / 228 m

LOWI

Details ICAO LOWI (INN)
Name Innsbruck Kranebitten
Region Austria
Timezone Europe/Vienna (UTC+2.0)
Stats Elevation 1,906 ft / 581 m (AMSL)
Location 47.260226° 11.343967°
Runways 1
Magnetic Variation 3.070° E

METAR

LOWI 201750Z 06010KT 9999 FEW040 SCT070 FEW070TCU BKN110 17/11 Q1017 NOSIG

Decode

TAF

TAF LOWI 201715Z 2018/2118 09005KT 9999 FEW040 SCT070 BKN100 TX24/2112Z TN10/2104Z TEMPO 2018/2021 VRB12G25KT SHRA SCT040 FEW060TCU BKN070 BECMG 2021/2023 VRB02KT SCT050 SCT100 BECMG 2108/2110 09009KT SCT070 TEMPO 2114/2118 VRB12G25KT SHRA SCT060TCU BKN070

Decode

Destination Runways

ID Width Length Bearing (true) Bearing (mag) Surface Threshold Offset Overrun Length
08 148 ft / 45 m 6,545 ft / 1,995 m 81.02° 77.95° Asphalt 338 ft / 103 m 0 ft / 0 m
26 148 ft / 45 m 6,545 ft / 1,995 m 261.04° 257.97° Asphalt 0 ft / 0 m 0 ft / 0 m

Approach Navaids

Runway Type Ident Frequency Range Bearing (true) Bearing (mag) Slope Elevation
26 Localiser OEV 111.10 MHz 27 nm / 50 km 256.00° 252.93° - 1,906 ft / 581 m (AMSL)
26 Localiser OEJ 109.70 MHz 30 nm / 56 km 69.00° 65.93° - 1,906 ft / 581 m (AMSL)
26 Glidescope OEV 111.10 MHz 18 nm / 33 km 256.00° 252.93° 3.80° 1,911 ft / 582 m (AMSL)
26 DME OEJ 109.70 MHz 30 nm / 56 km - - - 1,906 ft / 581 m (AMSL)
26 DME OEV 111.10 MHz 27 nm / 50 km - - - 1,911 ft / 582 m (AMSL)